createdAt,value
2022-09-18T00:01:14.003Z,96726.25
2022-09-18T00:03:42.954Z,96728.31
2022-09-18T00:06:12.992Z,96727.50
2022-09-18T00:08:40.697Z,96720.97
2022-09-18T00:11:10.107Z,96726.31
2022-09-18T00:13:39.594Z,96726.84
2022-09-18T00:16:09.158Z,96725.63
2022-09-18T00:18:38.437Z,96715.41
2022-09-18T00:21:07.506Z,96726.09
2022-09-18T00:23:35.499Z,96720.16
2022-09-18T00:26:03.288Z,96712.13
2022-09-18T00:28:31.011Z,96716.78
2022-09-18T00:31:05.641Z,96714.78
2022-09-18T00:33:34.438Z,96716.06
2022-09-18T00:36:05.244Z,96716.88
2022-09-18T00:38:33.567Z,96716.06
2022-09-18T00:41:02.363Z,96708.72
2022-09-18T00:43:32.316Z,96705.88
2022-09-18T00:46:04.116Z,96699.00
2022-09-18T00:48:40.472Z,96697.41
2022-09-18T00:51:10.238Z,96690.50
2022-09-18T00:53:41.307Z,96700.56
2022-09-18T00:56:13.574Z,96692.88
2022-09-18T00:58:41.630Z,96691.63
2022-09-18T01:01:09.590Z,96692.47
2022-09-18T01:03:37.514Z,96695.28
2022-09-18T01:06:15.595Z,96693.91
2022-09-18T01:08:52.471Z,96692.13
2022-09-18T01:11:36.893Z,96701.72
2022-09-18T01:14:20.455Z,96692.41
2022-09-18T01:16:56.305Z,96673.63
2022-09-18T01:19:39.545Z,96700.78
2022-09-18T01:22:22.991Z,96701.53
2022-09-18T01:25:09.845Z,96704.38
2022-09-18T01:28:08.571Z,96704.03
2022-09-18T01:30:42.717Z,96703.50
2022-09-18T01:33:19.040Z,96711.16
2022-09-18T01:35:53.466Z,96710.22
2022-09-18T01:38:27.825Z,96711.66
2022-09-18T01:40:59.906Z,96709.19
2022-09-18T01:43:31.966Z,96704.69
2022-09-18T01:46:04.381Z,96709.63
2022-09-18T01:48:34.942Z,96713.72
2022-09-18T01:51:08.812Z,96718.59
2022-09-18T01:53:43.054Z,96714.13
2022-09-18T01:56:16.121Z,96704.53
2022-09-18T01:58:46.065Z,96704.53
2022-09-18T02:01:19.526Z,96705.38
2022-09-18T02:03:52.044Z,96693.13
2022-09-18T02:06:26.145Z,96706.63
2022-09-18T02:08:56.730Z,96702.50
2022-09-18T02:11:24.963Z,96693.47
2022-09-18T02:14:00.036Z,96696.72
2022-09-18T02:16:34.465Z,96688.38
2022-09-18T02:19:08.928Z,96693.28
2022-09-18T02:21:38.084Z,96693.66
2022-09-18T02:24:10.025Z,96692.06
2022-09-18T02:26:40.730Z,96688.19
2022-09-18T02:29:12.746Z,96693.13
2022-09-18T02:31:41.334Z,96674.53
2022-09-18T02:34:11.428Z,96693.16
2022-09-18T02:36:59.355Z,96687.84
2022-09-18T02:39:46.769Z,96680.28
2022-09-18T02:42:27.253Z,96691.53
2022-09-18T02:45:02.622Z,96690.78
2022-09-18T02:47:42.557Z,96665.88
2022-09-18T02:50:17.465Z,96693.44
2022-09-18T02:52:52.992Z,96687.28
2022-09-18T02:55:27.009Z,96692.84
2022-09-18T02:57:59.469Z,96654.34
2022-09-18T03:00:32.147Z,96686.66
2022-09-18T03:03:00.808Z,96681.75
2022-09-18T03:05:28.784Z,96675.69
2022-09-18T03:07:56.486Z,96681.19
2022-09-18T03:10:24.255Z,96682.63
2022-09-18T03:12:51.907Z,96687.16
2022-09-18T03:15:19.686Z,96687.78
2022-09-18T03:17:48.968Z,96689.63
2022-09-18T03:20:16.718Z,96678.97
2022-09-18T03:22:44.437Z,96690.44
2022-09-18T03:25:13.272Z,96687.16
2022-09-18T03:27:42.514Z,96691.84
2022-09-18T03:30:11.071Z,96699.41
2022-09-18T03:32:38.812Z,96693.63
2022-09-18T03:35:09.175Z,96692.84
2022-09-18T03:37:36.974Z,96687.81
2022-09-18T03:40:05.521Z,96694.47
2022-09-18T03:42:33.275Z,96699.09
2022-09-18T03:45:01.101Z,96697.81
2022-09-18T03:47:31.803Z,96701.34
2022-09-18T03:50:02.302Z,96702.94
2022-09-18T03:52:31.536Z,96699.31
2022-09-18T03:54:59.303Z,96709.28
2022-09-18T03:57:27.348Z,96700.66
2022-09-18T03:59:55.017Z,96712.53
2022-09-18T04:02:22.746Z,96702.50
2022-09-18T04:04:50.788Z,96700.03
2022-09-18T04:07:19.067Z,96701.31
2022-09-18T04:09:48.430Z,96704.88
2022-09-18T04:12:16.177Z,96700.59
2022-09-18T04:14:44.011Z,96711.66
2022-09-18T04:17:12.437Z,96712.72
2022-09-18T04:19:40.236Z,96706.13
2022-09-18T04:22:07.989Z,96710.50
2022-09-18T04:24:36.383Z,96711.50
2022-09-18T04:27:05.713Z,96703.25
2022-09-18T04:29:33.724Z,96703.28
2022-09-18T04:32:01.414Z,96702.44
2022-09-18T04:34:29.212Z,96704.13
2022-09-18T04:36:56.910Z,96712.19
2022-09-18T04:39:24.722Z,96706.09
2022-09-18T04:41:52.845Z,96704.47
2022-09-18T04:44:22.143Z,96706.19
2022-09-18T04:46:50.004Z,96703.59
2022-09-18T04:49:18.805Z,96699.91
2022-09-18T04:51:46.761Z,96702.28
2022-09-18T04:54:14.557Z,96696.16
2022-09-18T04:56:42.247Z,96696.94
2022-09-18T04:59:09.969Z,96703.94
2022-09-18T05:01:39.139Z,96689.06
2022-09-18T05:04:07.678Z,96711.78
2022-09-18T05:06:35.426Z,96713.78
2022-09-18T05:09:03.364Z,96712.16
2022-09-18T05:11:31.139Z,96710.97
2022-09-18T05:13:59.384Z,96719.94
2022-09-18T05:16:27.287Z,96721.81
2022-09-18T05:18:56.564Z,96716.00
2022-09-18T05:21:25.080Z,96712.03
2022-09-18T05:23:52.875Z,96717.31
2022-09-18T05:26:20.911Z,96723.28
2022-09-18T05:28:49.939Z,96721.06
2022-09-18T05:31:18.083Z,96727.47
2022-09-18T05:33:45.877Z,96726.22
2022-09-18T05:36:15.205Z,96720.16
2022-09-18T05:38:43.030Z,96732.03
2022-09-18T05:41:10.936Z,96740.22
2022-09-18T05:43:38.602Z,96744.69
2022-09-18T05:46:07.037Z,96750.50
2022-09-18T05:48:34.737Z,96755.44
2022-09-18T05:51:02.461Z,96755.81
2022-09-18T05:53:31.535Z,96765.25
2022-09-18T05:56:01.075Z,96754.63
2022-09-18T05:58:28.762Z,96770.75
2022-09-18T06:00:58.794Z,96773.38
2022-09-18T06:03:26.590Z,96773.25
2022-09-18T06:05:55.606Z,96783.25
2022-09-18T06:08:23.976Z,96790.41
2022-09-18T06:10:54.714Z,96781.44
2022-09-18T06:13:22.689Z,96786.50
2022-09-18T06:15:52.308Z,96777.72
2022-09-18T06:18:20.316Z,96778.94
2022-09-18T06:20:54.307Z,96782.38
2022-09-18T06:23:22.970Z,96790.28
2022-09-18T06:25:56.915Z,96790.81
2022-09-18T06:28:26.124Z,96784.59
2022-09-18T06:30:53.858Z,96793.09
2022-09-18T06:33:21.567Z,96786.75
2022-09-18T06:35:49.432Z,96790.16
2022-09-18T06:38:17.636Z,96789.22
2022-09-18T06:40:49.951Z,96790.13
2022-09-18T06:43:18.446Z,96787.28
2022-09-18T06:45:52.665Z,96788.41
2022-09-18T06:48:20.470Z,96799.59
2022-09-18T06:50:52.978Z,96796.13
2022-09-18T06:53:21.185Z,96799.03
2022-09-18T06:55:49.059Z,96788.41
2022-09-18T06:58:17.423Z,96787.25
2022-09-18T07:00:47.359Z,96784.84
2022-09-18T07:03:15.399Z,96793.66
2022-09-18T07:05:45.416Z,96771.84
2022-09-18T07:08:13.727Z,96780.72
2022-09-18T07:10:41.823Z,96787.56
2022-09-18T07:13:10.208Z,96769.00
2022-09-18T07:15:37.941Z,96778.38
2022-09-18T07:18:08.083Z,96778.50
2022-09-18T07:20:36.154Z,96776.25
2022-09-18T07:23:04.337Z,96771.97
2022-09-18T07:25:34.453Z,96773.81
2022-09-18T07:28:07.824Z,96775.91
2022-09-18T07:30:35.670Z,96776.38
2022-09-18T07:33:04.473Z,96783.97
2022-09-18T07:35:34.283Z,96775.50
2022-09-18T07:38:03.346Z,96782.59
2022-09-18T07:40:31.313Z,96777.97
2022-09-18T07:43:00.624Z,96786.31
2022-09-18T07:45:28.611Z,96755.66
2022-09-18T07:47:56.380Z,96783.28
2022-09-18T07:50:24.419Z,96786.69
2022-09-18T07:52:55.679Z,96766.81
2022-09-18T07:55:24.404Z,96773.81
2022-09-18T07:57:56.339Z,96775.97
2022-09-18T08:00:24.128Z,96767.22
2022-09-18T08:02:52.402Z,96773.09
2022-09-18T08:05:20.179Z,96785.56
2022-09-18T08:07:47.898Z,96780.69
2022-09-18T08:10:17.390Z,96777.22
2022-09-18T08:12:45.127Z,96783.50
2022-09-18T08:15:12.811Z,96776.72
2022-09-18T08:17:45.402Z,96777.53
2022-09-18T08:20:13.068Z,96772.38
2022-09-18T08:22:41.496Z,96775.63
2022-09-18T08:25:10.949Z,96776.16
2022-09-18T08:27:40.731Z,96780.53
2022-09-18T08:30:10.649Z,96782.00
2022-09-18T08:32:39.439Z,96774.53
2022-09-18T08:35:08.067Z,96779.44
2022-09-18T08:37:35.826Z,96776.31
2022-09-18T08:40:03.736Z,96774.88
2022-09-18T08:42:41.200Z,96773.31
2022-09-18T08:45:32.434Z,96775.06
2022-09-18T08:48:06.013Z,96769.25
2022-09-18T08:50:38.690Z,96766.66
2022-09-18T08:53:12.266Z,96768.03
2022-09-18T08:55:43.236Z,96765.63
2022-09-18T08:58:14.734Z,96771.63
2022-09-18T09:00:47.839Z,96767.34
2022-09-18T09:03:27.837Z,96762.91
2022-09-18T09:05:59.466Z,96764.91
2022-09-18T09:08:53.424Z,96761.41
2022-09-18T09:11:32.470Z,96762.72
2022-09-18T09:14:34.268Z,96763.75
2022-09-18T09:17:18.679Z,96762.91
2022-09-18T09:19:55.298Z,96755.50
2022-09-18T09:22:35.505Z,96763.31
2022-09-18T09:25:12.599Z,96763.75
2022-09-18T09:27:45.032Z,96763.78
2022-09-18T09:30:16.473Z,96764.34
2022-09-18T09:32:50.666Z,96755.69
2022-09-18T09:35:29.625Z,96759.56
2022-09-18T09:38:01.760Z,96748.69
2022-09-18T09:40:40.123Z,96755.47
2022-09-18T09:43:17.636Z,96743.69
2022-09-18T09:45:48.167Z,96748.16
2022-09-18T09:48:25.569Z,96745.88
2022-09-18T09:50:59.421Z,96739.78
2022-09-18T09:53:29.027Z,96741.03
2022-09-18T09:56:03.518Z,96738.84
2022-09-18T09:58:41.820Z,96727.88
2022-09-18T10:01:15.073Z,96726.38
2022-09-18T10:03:52.469Z,96731.34
2022-09-18T10:06:34.268Z,96730.69
2022-09-18T10:09:06.692Z,96728.66
2022-09-18T10:11:37.481Z,96732.41
2022-09-18T10:14:11.284Z,96729.44
2022-09-18T10:16:43.260Z,96715.28
2022-09-18T10:19:16.642Z,96718.75
2022-09-18T10:21:45.460Z,96725.69
2022-09-18T10:24:23.304Z,96724.75
2022-09-18T10:26:54.803Z,96719.06
2022-09-18T10:29:22.526Z,96714.50
2022-09-18T10:31:53.489Z,96707.88
2022-09-18T10:34:35.305Z,96717.94
2022-09-18T10:37:03.394Z,96712.72
2022-09-18T10:39:32.791Z,96701.63
2022-09-18T10:42:01.862Z,96703.44
2022-09-18T10:44:31.871Z,96696.13
2022-09-18T10:47:05.009Z,96709.06
2022-09-18T10:49:37.380Z,96704.78
2022-09-18T10:52:29.895Z,96698.56
2022-09-18T10:55:12.593Z,96706.84
2022-09-18T10:57:43.658Z,96688.47
2022-09-18T11:00:48.481Z,96692.50
2022-09-18T11:03:24.819Z,96689.28
2022-09-18T11:05:58.497Z,96697.44
2022-09-18T11:08:30.964Z,96689.34
2022-09-18T11:11:05.254Z,96685.22
2022-09-18T11:13:34.454Z,96675.91
2022-09-18T11:16:05.409Z,96680.34
2022-09-18T11:18:34.723Z,96679.88
2022-09-18T11:21:06.976Z,96656.69
2022-09-18T11:23:36.695Z,96667.38
2022-09-18T11:26:19.389Z,96666.34
2022-09-18T11:29:02.297Z,96658.03
2022-09-18T11:31:44.512Z,96654.63
2022-09-18T11:34:22.765Z,96651.47
2022-09-18T11:36:54.294Z,96650.44
2022-09-18T11:39:27.393Z,96647.59
2022-09-18T11:41:56.620Z,96641.56
2022-09-18T11:44:27.814Z,96641.72
2022-09-18T11:47:29.870Z,96640.91
2022-09-18T11:50:09.324Z,96640.78
2022-09-18T11:52:42.673Z,96632.31
2022-09-18T11:55:23.429Z,96628.75
2022-09-18T11:57:56.881Z,96622.31
2022-09-18T12:00:27.713Z,96634.75
2022-09-18T12:03:06.902Z,96627.69
2022-09-18T12:05:41.962Z,96623.94
2022-09-18T12:08:19.266Z,96616.88
2022-09-18T12:10:55.296Z,96608.28
2022-09-18T12:13:40.192Z,96613.25
2022-09-18T12:16:15.241Z,96602.59
2022-09-18T12:18:52.310Z,96608.00
2022-09-18T12:21:26.246Z,96602.28
2022-09-18T12:23:55.770Z,96594.50
2022-09-18T12:26:31.298Z,96602.09
2022-09-18T12:29:12.890Z,96575.84
2022-09-18T12:31:52.925Z,96577.47
2022-09-18T12:34:31.480Z,96581.47
2022-09-18T12:37:11.835Z,96579.41
2022-09-18T12:40:01.892Z,96574.75
2022-09-18T12:42:38.420Z,96569.06
2022-09-18T12:45:32.540Z,96567.31
2022-09-18T12:48:15.472Z,96564.84
2022-09-18T12:50:54.923Z,96562.84
2022-09-18T12:53:36.524Z,96555.78
2022-09-18T12:56:19.915Z,96550.00
2022-09-18T12:59:02.889Z,96553.81
2022-09-18T13:01:35.981Z,96550.75
2022-09-18T13:04:12.415Z,96553.34
2022-09-18T13:06:46.018Z,96551.44
2022-09-18T13:09:22.757Z,96546.09
2022-09-18T13:12:00.267Z,96550.22
2022-09-18T13:14:33.383Z,96543.31
2022-09-18T13:17:09.041Z,96539.47
2022-09-18T13:19:41.270Z,96540.53
2022-09-18T13:22:14.234Z,96541.66
2022-09-18T13:24:44.290Z,96528.84
2022-09-18T13:27:17.216Z,96536.91
2022-09-18T13:29:59.189Z,96530.44
2022-09-18T13:32:39.668Z,96518.00
2022-09-18T13:35:20.808Z,96511.81
2022-09-18T13:37:49.825Z,96510.44
2022-09-18T13:40:35.908Z,96510.91
2022-09-18T13:43:30.618Z,96498.19
2022-09-18T13:46:03.443Z,96498.88
2022-09-18T13:48:36.886Z,96495.63
2022-09-18T13:51:08.199Z,96492.97
2022-09-18T13:53:44.316Z,96491.53
2022-09-18T13:56:13.369Z,96474.41
2022-09-18T13:58:54.382Z,96493.38
2022-09-18T14:01:58.351Z,96489.41
2022-09-18T14:05:05.642Z,96489.19
2022-09-18T14:07:56.755Z,96486.88
2022-09-18T14:10:31.747Z,96476.75
2022-09-18T14:13:29.590Z,96486.41
2022-09-18T14:16:03.730Z,96475.38
2022-09-18T14:18:34.866Z,96455.25
2022-09-18T14:21:19.607Z,96460.91
2022-09-18T14:23:52.573Z,96472.69
2022-09-18T14:27:00.814Z,96475.25
2022-09-18T14:29:32.698Z,96469.06
2022-09-18T14:32:03.223Z,96472.88
2022-09-18T14:34:38.341Z,96469.41
2022-09-18T14:37:24.526Z,96466.44
2022-09-18T14:39:55.131Z,96466.16
2022-09-18T14:42:32.599Z,96462.09
2022-09-18T14:45:21.523Z,96464.81
2022-09-18T14:47:51.028Z,96461.03
2022-09-18T14:50:34.763Z,96467.50
2022-09-18T14:53:05.289Z,96464.28
2022-09-18T14:55:36.742Z,96453.47
2022-09-18T14:58:08.373Z,96458.34
2022-09-18T15:00:38.497Z,96453.16
2022-09-18T15:03:15.389Z,96453.75
2022-09-18T15:05:43.569Z,96452.88
2022-09-18T15:08:18.259Z,96454.75
2022-09-18T15:10:48.665Z,96441.75
2022-09-18T15:13:17.907Z,96451.50
2022-09-18T15:15:46.698Z,96449.59
2022-09-18T15:18:27.455Z,96456.84
2022-09-18T15:20:56.844Z,96461.97
2022-09-18T15:23:28.286Z,96462.47
2022-09-18T15:26:00.008Z,96461.16
2022-09-18T15:28:29.221Z,96465.72
2022-09-18T15:31:03.447Z,96463.03
2022-09-18T15:33:35.669Z,96460.34
2022-09-18T15:36:05.061Z,96468.63
2022-09-18T15:38:40.297Z,96464.31
2022-09-18T15:41:23.187Z,96469.97
2022-09-18T15:43:51.014Z,96469.78
2022-09-18T15:46:26.889Z,96464.09
2022-09-18T15:49:00.442Z,96470.53
2022-09-18T15:51:30.028Z,96469.91
2022-09-18T15:54:09.781Z,96459.75
2022-09-18T15:56:40.579Z,96463.22
2022-09-18T15:59:18.578Z,96458.66
2022-09-18T16:01:48.540Z,96456.50
2022-09-18T16:04:20.373Z,96446.69
2022-09-18T16:06:55.510Z,96446.75
2022-09-18T16:09:28.151Z,96460.78
2022-09-18T16:11:57.843Z,96450.28
2022-09-18T16:15:00.413Z,96461.81
2022-09-18T16:17:56.198Z,96463.56
2022-09-18T16:20:30.033Z,96460.59
2022-09-18T16:23:05.768Z,96457.31
2022-09-18T16:25:37.350Z,96446.63
2022-09-18T16:28:19.759Z,96461.25
2022-09-18T16:30:48.528Z,96457.13
2022-09-18T16:33:19.709Z,96434.44
2022-09-18T16:35:56.170Z,96451.63
2022-09-18T16:38:24.127Z,96443.00
2022-09-18T16:40:51.780Z,96455.97
2022-09-18T16:43:19.623Z,96452.94
2022-09-18T16:45:48.433Z,96451.28
2022-09-18T16:48:16.534Z,96446.41
2022-09-18T16:50:44.269Z,96448.00
2022-09-18T16:53:13.296Z,96459.34
2022-09-18T16:55:44.725Z,96453.59
2022-09-18T16:58:13.630Z,96455.66
2022-09-18T17:00:41.447Z,96461.13
2022-09-18T17:03:09.671Z,96460.84
2022-09-18T17:05:37.460Z,96467.44
2022-09-18T17:08:05.500Z,96471.16
2022-09-18T17:10:35.352Z,96467.53
2022-09-18T17:13:03.246Z,96474.13
2022-09-18T17:15:31.526Z,96472.53
2022-09-18T17:17:59.238Z,96481.38
2022-09-18T17:20:26.964Z,96484.47
2022-09-18T17:22:54.779Z,96478.78
2022-09-18T17:25:22.428Z,96478.03
2022-09-18T17:27:52.680Z,96479.00
2022-09-18T17:30:20.817Z,96480.38
2022-09-18T17:32:49.579Z,96479.69
2022-09-18T17:35:18.111Z,96478.09
2022-09-18T17:37:45.950Z,96471.34
2022-09-18T17:40:13.788Z,96474.19
2022-09-18T17:42:41.656Z,96470.56
2022-09-18T17:45:11.451Z,96483.13
2022-09-18T17:47:39.187Z,96492.78
2022-09-18T17:50:08.450Z,96494.94
2022-09-18T17:52:37.048Z,96430.38
2022-09-18T17:55:05.535Z,96495.47
2022-09-18T17:57:36.909Z,96491.25
2022-09-18T18:00:05.913Z,96496.16
2022-09-18T18:02:35.217Z,96498.94
2022-09-18T18:05:02.997Z,96505.94
2022-09-18T18:07:30.734Z,96501.69
2022-09-18T18:09:58.764Z,96504.56
2022-09-18T18:12:26.795Z,96494.88
2022-09-18T18:14:54.491Z,96502.66
2022-09-18T18:17:22.185Z,96503.13
2022-09-18T18:19:51.656Z,96502.31
2022-09-18T18:22:19.374Z,96507.59
2022-09-18T18:24:49.593Z,96517.13
2022-09-18T18:27:20.739Z,96515.63
2022-09-18T18:29:52.427Z,96513.63
2022-09-18T18:32:20.783Z,96517.13
2022-09-18T18:34:49.878Z,96517.81
2022-09-18T18:37:19.738Z,96522.81
2022-09-18T18:39:48.665Z,96533.31
2022-09-18T18:42:16.425Z,96530.75
2022-09-18T18:44:44.094Z,96531.78
2022-09-18T18:47:11.850Z,96530.13
2022-09-18T18:49:40.172Z,96534.94
2022-09-18T18:52:07.885Z,96542.69
2022-09-18T18:54:37.071Z,96538.47
2022-09-18T18:57:05.911Z,96537.38
2022-09-18T18:59:33.701Z,96535.63
2022-09-18T19:02:02.226Z,96534.81
2022-09-18T19:04:30.695Z,96539.44
2022-09-18T19:06:58.792Z,96528.50
2022-09-18T19:09:29.514Z,96543.13
2022-09-18T19:11:58.934Z,96542.00
2022-09-18T19:14:28.953Z,96545.75
2022-09-18T19:16:56.888Z,96556.00
2022-09-18T19:19:26.735Z,96553.72
2022-09-18T19:21:54.709Z,96498.81
2022-09-18T19:24:22.729Z,96556.41
2022-09-18T19:26:50.481Z,96565.13
2022-09-18T19:29:21.623Z,96554.56
2022-09-18T19:31:50.433Z,96560.81
2022-09-18T19:34:19.906Z,96557.31
2022-09-18T19:36:49.903Z,96561.47
2022-09-18T19:39:18.893Z,96562.69
2022-09-18T19:41:51.299Z,96552.69
2022-09-18T19:44:26.834Z,96555.09
2022-09-18T19:46:56.615Z,96558.63
2022-09-18T19:49:29.854Z,96565.00
2022-09-18T19:51:57.728Z,96557.78
2022-09-18T19:54:25.438Z,96553.25
2022-09-18T19:56:53.130Z,96549.50
2022-09-18T19:59:22.246Z,96550.88
2022-09-18T20:01:50.116Z,96558.00
2022-09-18T20:04:17.909Z,96563.44
2022-09-18T20:06:45.633Z,96556.41
2022-09-18T20:09:13.378Z,96558.56
2022-09-18T20:11:42.205Z,96559.16
2022-09-18T20:14:11.276Z,96565.78
2022-09-18T20:16:40.460Z,96562.53
2022-09-18T20:19:08.196Z,96565.75
2022-09-18T20:21:35.886Z,96565.38
2022-09-18T20:24:03.561Z,96567.56
2022-09-18T20:26:31.400Z,96572.06
2022-09-18T20:28:59.224Z,96574.13
2022-09-18T20:31:27.040Z,96567.69
2022-09-18T20:33:56.943Z,96557.28
2022-09-18T20:36:25.692Z,96566.47
2022-09-18T20:38:57.928Z,96561.84
2022-09-18T20:41:29.899Z,96554.94
2022-09-18T20:44:01.142Z,96566.97
2022-09-18T20:46:29.119Z,96537.84
2022-09-18T20:49:00.939Z,96553.09
2022-09-18T20:51:32.444Z,96549.19
2022-09-18T20:54:00.337Z,96548.19
2022-09-18T20:56:32.077Z,96548.41
2022-09-18T20:59:04.832Z,96555.09
2022-09-18T21:01:35.230Z,96552.50
2022-09-18T21:04:04.708Z,96545.50
2022-09-18T21:06:34.344Z,96543.38
2022-09-18T21:09:06.403Z,96553.25
2022-09-18T21:11:37.669Z,96547.78
2022-09-18T21:14:07.285Z,96545.53
2022-09-18T21:16:40.400Z,96547.13
2022-09-18T21:19:11.838Z,96549.50
2022-09-18T21:21:39.845Z,96540.00
2022-09-18T21:24:09.201Z,96550.78
2022-09-18T21:26:39.003Z,96550.41
2022-09-18T21:29:08.783Z,96549.03
2022-09-18T21:31:38.405Z,96549.81
2022-09-18T21:34:06.298Z,96558.03
2022-09-18T21:36:38.482Z,96552.59
2022-09-18T21:39:07.342Z,96554.28
2022-09-18T21:41:38.653Z,96552.66
2022-09-18T21:44:08.833Z,96554.47
2022-09-18T21:46:38.383Z,96549.94
2022-09-18T21:49:08.702Z,96558.06
2022-09-18T21:51:41.134Z,96536.44
2022-09-18T21:54:14.200Z,96543.59
2022-09-18T21:56:42.626Z,96551.72
2022-09-18T21:59:10.757Z,96551.13
2022-09-18T22:01:38.975Z,96550.41
2022-09-18T22:04:07.390Z,96550.41
2022-09-18T22:06:40.730Z,96549.44
2022-09-18T22:09:10.167Z,96553.63
2022-09-18T22:11:39.242Z,96559.44
2022-09-18T22:14:09.603Z,96556.44
2022-09-18T22:16:38.170Z,96559.03
2022-09-18T22:19:08.161Z,96569.75
2022-09-18T22:21:39.119Z,96561.47
2022-09-18T22:24:08.811Z,96558.28
2022-09-18T22:26:39.402Z,96566.03
2022-09-18T22:29:08.811Z,96561.47
2022-09-18T22:31:37.325Z,96552.06
2022-09-18T22:34:06.135Z,96562.94
2022-09-18T22:36:34.391Z,96553.59
2022-09-18T22:39:03.485Z,96565.47
2022-09-18T22:41:31.162Z,96562.28
2022-09-18T22:43:59.266Z,96556.13
2022-09-18T22:46:27.358Z,96563.19
2022-09-18T22:48:55.627Z,96551.53
2022-09-18T22:51:27.173Z,96557.72
2022-09-18T22:53:56.519Z,96550.88
2022-09-18T22:56:27.357Z,96556.03
2022-09-18T22:58:57.058Z,96556.09
2022-09-18T23:01:30.345Z,96548.94
2022-09-18T23:03:59.398Z,96548.06
2022-09-18T23:06:28.066Z,96543.59
2022-09-18T23:08:57.842Z,96541.22
2022-09-18T23:11:28.899Z,96542.84
2022-09-18T23:13:58.540Z,96549.19
2022-09-18T23:16:28.976Z,96528.16
2022-09-18T23:18:59.001Z,96550.97
2022-09-18T23:21:28.765Z,96553.66
2022-09-18T23:23:57.484Z,96545.53
2022-09-18T23:26:29.363Z,96537.72
2022-09-18T23:28:59.020Z,96548.59
2022-09-18T23:31:28.472Z,96551.22
2022-09-18T23:33:58.509Z,96545.84
2022-09-18T23:36:28.245Z,96545.22
2022-09-18T23:38:57.949Z,96546.19
2022-09-18T23:41:29.678Z,96553.16
2022-09-18T23:43:57.856Z,96550.50
2022-09-18T23:46:25.591Z,96556.31
2022-09-18T23:48:55.685Z,96558.53
2022-09-18T23:51:24.599Z,96558.63
2022-09-18T23:53:52.676Z,96558.22
2022-09-18T23:56:20.336Z,96553.81
2022-09-18T23:58:54.251Z,96553.16
